PWSweather.com
Personal Weather Stations
Station Observations
KCOBLACK1
Chalet Park, Black Hawk, CO 80422

Chalet ParkBlack Hawk, CO 80422

Lat: 39.8294, Lon: -105.48

Elevation: 9370

Station Type: Vantage Pro2

http://www.oscaranddeb.com/weather

High Low Average
Temperature 76.5°F24.7°F 58.7°F14.8°F 65.2°F18.4°F
Dew Point 50.1°F10.1°F 33.2°F0.7°F 40.1°F4.5°F
Winds 17.0 mph WNW27.4 mph WNW Calm Calm 4.0 mph 6.4 mph
Wind Gusts 31.0 mph49.9 mph -- 9.8 mph15.8 mph
Humidity 55% 25% 41%
Pressure 29.73 in1006.80 in 29.64 in1003.70 in -
Precipitation 0.48 in12.20 in - -
Hour Temp Dew Point Humidity Winds Wind Gusts Pressure Precip Precip Rate Daily Precip Total
12:00 AM 60.7°F15.9°C 42.4°F5.8°C 51% 6.0 mph WSW9.7 kmh WSW 10.0 mph16.1 kmh 29.73 in1006.8 mb 0.00 in0.0 mm 0.00 in0.0 mm 0.00 in0.0 mm
12:05 AM 60.6°F15.9°C 41.8°F5.4°C 50% 4.0 mph WSW6.4 kmh WSW 11.0 mph17.7 kmh 29.73 in1006.8 mb 0.00 in0.0 mm 0.00 in0.0 mm 0.00 in0.0 mm
12:10 AM 60.7°F15.9°C 41.9°F5.5°C 50% 11.0 mph WSW17.7 kmh WSW 15.0 mph24.1 kmh 29.73 in1006.8 mb 0.00 in0.0 mm 0.00 in0.0 mm 0.00 in0.0 mm
12:15 AM 60.8°F16.0°C 42.0°F5.6°C 50% 8.0 mph SW12.9 kmh SW 15.0 mph24.1 kmh 29.73 in1006.8 mb 0.00 in0.0 mm 0.00 in0.0 mm 0.00 in0.0 mm
12:20 AM 61.0°F16.1°C 42.2°F5.7°C 50% 7.0 mph SW11.3 kmh SW 18.0 mph29.0 kmh 29.73 in1006.8 mb 0.00 in0.0 mm 0.00 in0.0 mm 0.00 in0.0 mm
12:25 AM 60.8°F16.0°C 42.5°F5.8°C 51% 6.0 mph SSW9.7 kmh SSW 15.0 mph24.1 kmh 29.72 in1006.4 mb 0.00 in0.0 mm 0.00 in0.0 mm 0.00 in0.0 mm
12:30 AM 60.7°F15.9°C 42.4°F5.8°C 51% 5.0 mph SSW8.0 kmh SSW 12.0 mph19.3 kmh 29.73 in1006.8 mb 0.00 in0.0 mm 0.00 in0.0 mm 0.00 in0.0 mm
12:35 AM 60.5°F15.8°C 42.2°F5.7°C 51% 7.0 mph WSW11.3 kmh WSW 12.0 mph19.3 kmh 29.73 in1006.8 mb 0.00 in0.0 mm 0.00 in0.0 mm 0.00 in0.0 mm
12:40 AM 60.3°F15.7°C 42.0°F5.6°C 51% 8.0 mph SSW12.9 kmh SSW 11.0 mph17.7 kmh 29.73 in1006.8 mb 0.00 in0.0 mm 0.00 in0.0 mm 0.00 in0.0 mm
12:45 AM 60.4°F15.8°C 41.6°F5.3°C 50% 7.0 mph SW11.3 kmh SW 13.0 mph20.9 kmh 29.73 in1006.8 mb 0.00 in0.0 mm 0.00 in0.0 mm 0.00 in0.0 mm
12:50 AM 60.4°F15.8°C 41.6°F5.3°C 50% 7.0 mph SSW11.3 kmh SSW 14.0 mph22.5 kmh 29.73 in1006.8 mb 0.00 in0.0 mm 0.00 in0.0 mm 0.00 in0.0 mm
12:55 AM 60.5°F15.8°C 41.7°F5.4°C 50% 7.0 mph SSW11.3 kmh SSW 15.0 mph24.1 kmh 29.73 in1006.8 mb 0.00 in0.0 mm 0.00 in0.0 mm 0.00 in0.0 mm
01:00 AM 60.5°F15.8°C 41.7°F5.4°C 50% 4.0 mph W6.4 kmh W 12.0 mph19.3 kmh 29.73 in1006.8 mb 0.00 in0.0 mm 0.00 in0.0 mm 0.00 in0.0 mm
01:05 AM 60.5°F15.8°C 41.7°F5.4°C 50% 3.0 mph WSW4.8 kmh WSW 10.0 mph16.1 kmh 29.73 in1006.8 mb 0.00 in0.0 mm 0.00 in0.0 mm 0.00 in0.0 mm
01:10 AM 60.4°F15.8°C 41.1°F5.1°C 49% 5.0 mph SW8.0 kmh SW 10.0 mph16.1 kmh 29.72 in1006.4 mb 0.00 in0.0 mm 0.00 in0.0 mm 0.00 in0.0 mm
01:15 AM 60.2°F15.7°C 40.9°F4.9°C 49% 4.0 mph SW6.4 kmh SW 8.0 mph12.9 kmh 29.72 in1006.4 mb 0.00 in0.0 mm 0.00 in0.0 mm 0.00 in0.0 mm
01:20 AM 60.3°F15.7°C 41.0°F5.0°C 49% 4.0 mph SW6.4 kmh SW 10.0 mph16.1 kmh 29.72 in1006.4 mb 0.00 in0.0 mm 0.00 in0.0 mm 0.00 in0.0 mm
01:25 AM 60.2°F15.7°C 40.9°F4.9°C 49% 4.0 mph WSW6.4 kmh WSW 9.0 mph14.5 kmh 29.72 in1006.4 mb 0.00 in0.0 mm 0.00 in0.0 mm 0.00 in0.0 mm
01:30 AM 59.9°F15.5°C 40.6°F4.8°C 49% 2.0 mph WSW3.2 kmh WSW 9.0 mph14.5 kmh 29.71 in1006.1 mb 0.00 in0.0 mm 0.00 in0.0 mm 0.00 in0.0 mm
01:35 AM 59.5°F15.3°C 40.8°F4.9°C 50% 4.0 mph WSW6.4 kmh WSW 8.0 mph12.9 kmh 29.72 in1006.4 mb 0.00 in0.0 mm 0.00 in0.0 mm 0.00 in0.0 mm
01:40 AM 59.5°F15.3°C 40.3°F4.6°C 49% 3.0 mph WSW4.8 kmh WSW 6.0 mph9.7 kmh 29.71 in1006.1 mb 0.00 in0.0 mm 0.00 in0.0 mm 0.00 in0.0 mm
01:45 AM 59.6°F15.3°C 40.4°F4.7°C 49% 3.0 mph SW4.8 kmh SW 5.0 mph8.0 kmh 29.71 in1006.1 mb 0.00 in0.0 mm 0.00 in0.0 mm 0.00 in0.0 mm
01:50 AM 59.4°F15.2°C 40.2°F4.6°C 49% 4.0 mph SW6.4 kmh SW 6.0 mph9.7 kmh 29.71 in1006.1 mb 0.00 in0.0 mm 0.00 in0.0 mm 0.00 in0.0 mm
01:55 AM 59.4°F15.2°C 39.7°F4.3°C 48% 4.0 mph SW6.4 kmh SW 5.0 mph8.0 kmh 29.71 in1006.1 mb 0.00 in0.0 mm 0.00 in0.0 mm 0.00 in0.0 mm
02:00 AM 59.5°F15.3°C 39.7°F4.3°C 48% 3.0 mph SW4.8 kmh SW 6.0 mph9.7 kmh 29.71 in1006.1 mb 0.00 in0.0 mm 0.00 in0.0 mm 0.00 in0.0 mm
02:05 AM 59.4°F15.2°C 39.7°F4.3°C 48% 8.0 mph SW12.9 kmh SW 7.0 mph11.3 kmh 29.70 in1005.8 mb 0.00 in0.0 mm 0.00 in0.0 mm 0.00 in0.0 mm
02:10 AM 59.3°F15.2°C 39.0°F3.9°C 47% 4.0 mph SW6.4 kmh SW 8.0 mph12.9 kmh 29.70 in1005.8 mb 0.00 in0.0 mm 0.00 in0.0 mm 0.00 in0.0 mm
02:15 AM 59.5°F15.3°C 38.7°F3.7°C 46% 3.0 mph WSW4.8 kmh WSW 7.0 mph11.3 kmh 29.70 in1005.8 mb 0.00 in0.0 mm 0.00 in0.0 mm 0.00 in0.0 mm
02:20 AM 59.9°F15.5°C 39.0°F3.9°C 46% 3.0 mph W4.8 kmh W 7.0 mph11.3 kmh 29.70 in1005.8 mb 0.00 in0.0 mm 0.00 in0.0 mm 0.00 in0.0 mm
02:25 AM 60.1°F15.6°C 38.6°F3.7°C 45% 3.0 mph W4.8 kmh W 7.0 mph11.3 kmh 29.70 in1005.8 mb 0.00 in0.0 mm 0.00 in0.0 mm 0.00 in0.0 mm
02:30 AM 60.3°F15.7°C 38.8°F3.8°C 45% 7.0 mph WNW11.3 kmh WNW 7.0 mph11.3 kmh 29.71 in1006.1 mb 0.00 in0.0 mm 0.00 in0.0 mm 0.00 in0.0 mm
02:35 AM 60.7°F15.9°C 38.6°F3.7°C 44% 1.0 mph WNW1.6 kmh WNW 9.0 mph14.5 kmh 29.71 in1006.1 mb 0.00 in0.0 mm 0.00 in0.0 mm 0.00 in0.0 mm
02:40 AM 60.8°F16.0°C 38.7°F3.7°C 44% 4.0 mph SE6.4 kmh SE 9.0 mph14.5 kmh 29.70 in1005.8 mb 0.00 in0.0 mm 0.00 in0.0 mm 0.00 in0.0 mm
02:45 AM 60.8°F16.0°C 38.7°F3.7°C 44% Calm Calm 4.0 mph6.4 kmh 29.70 in1005.8 mb 0.00 in0.0 mm 0.00 in0.0 mm 0.00 in0.0 mm
02:50 AM 60.9°F16.1°C 38.8°F3.8°C 44% 1.0 mph S1.6 kmh S 6.0 mph9.7 kmh 29.71 in1006.1 mb 0.00 in0.0 mm 0.00 in0.0 mm 0.00 in0.0 mm
02:55 AM 61.1°F16.2°C 39.0°F3.9°C 44% 3.0 mph W4.8 kmh W 7.0 mph11.3 kmh 29.70 in1005.8 mb 0.00 in0.0 mm 0.00 in0.0 mm 0.00 in0.0 mm
03:00 AM 61.3°F16.3°C 38.6°F3.7°C 43% Calm Calm 3.0 mph4.8 kmh 29.71 in1006.1 mb 0.00 in0.0 mm 0.00 in0.0 mm 0.00 in0.0 mm
03:05 AM 61.2°F16.2°C 39.1°F3.9°C 44% Calm Calm 5.0 mph8.0 kmh 29.71 in1006.1 mb 0.00 in0.0 mm 0.00 in0.0 mm 0.00 in0.0 mm
03:10 AM 60.9°F16.1°C 38.8°F3.8°C 44% 1.0 mph WSW1.6 kmh WSW 2.0 mph3.2 kmh 29.71 in1006.1 mb 0.00 in0.0 mm 0.00 in0.0 mm 0.00 in0.0 mm
03:15 AM 60.9°F16.1°C 38.8°F3.8°C 44% Calm Calm 1.0 mph1.6 kmh 29.71 in1006.1 mb 0.00 in0.0 mm 0.00 in0.0 mm 0.00 in0.0 mm
03:20 AM 60.7°F15.9°C 39.2°F4.0°C 45% 3.0 mph W4.8 kmh W 6.0 mph9.7 kmh 29.71 in1006.1 mb 0.00 in0.0 mm 0.00 in0.0 mm 0.00 in0.0 mm
03:25 AM 60.9°F16.1°C 39.4°F4.1°C 45% 4.0 mph WSW6.4 kmh WSW 8.0 mph12.9 kmh 29.71 in1006.1 mb 0.00 in0.0 mm 0.00 in0.0 mm 0.00 in0.0 mm
03:30 AM 60.8°F16.0°C 39.3°F4.1°C 45% 2.0 mph WSW3.2 kmh WSW 9.0 mph14.5 kmh 29.70 in1005.8 mb 0.00 in0.0 mm 0.00 in0.0 mm 0.00 in0.0 mm
03:35 AM 60.5°F15.8°C 39.6°F4.2°C 46% 8.0 mph WSW12.9 kmh WSW 11.0 mph17.7 kmh 29.70 in1005.8 mb 0.00 in0.0 mm 0.00 in0.0 mm 0.00 in0.0 mm
03:40 AM 60.3°F15.7°C 39.9°F4.4°C 47% 4.0 mph W6.4 kmh W 13.0 mph20.9 kmh 29.70 in1005.8 mb 0.00 in0.0 mm 0.00 in0.0 mm 0.00 in0.0 mm
03:45 AM 60.3°F15.7°C 39.9°F4.4°C 47% 7.0 mph NW11.3 kmh NW 12.0 mph19.3 kmh 29.70 in1005.8 mb 0.00 in0.0 mm 0.00 in0.0 mm 0.00 in0.0 mm
03:50 AM 60.1°F15.6°C 39.8°F4.3°C 47% 2.0 mph W3.2 kmh W 9.0 mph14.5 kmh 29.70 in1005.8 mb 0.00 in0.0 mm 0.00 in0.0 mm 0.00 in0.0 mm
03:55 AM 59.9°F15.5°C 40.1°F4.5°C 48% 3.0 mph NW4.8 kmh NW 13.0 mph20.9 kmh 29.70 in1005.8 mb 0.00 in0.0 mm 0.00 in0.0 mm 0.00 in0.0 mm
04:00 AM 59.9°F15.5°C 40.1°F4.5°C 48% 2.0 mph NW3.2 kmh NW 9.0 mph14.5 kmh 29.70 in1005.8 mb 0.00 in0.0 mm 0.00 in0.0 mm 0.00 in0.0 mm
04:05 AM 59.9°F15.5°C 40.1°F4.5°C 48% 5.0 mph WSW8.0 kmh WSW 6.0 mph9.7 kmh 29.70 in1005.8 mb 0.00 in0.0 mm 0.00 in0.0 mm 0.00 in0.0 mm
04:10 AM 59.9°F15.5°C 40.1°F4.5°C 48% 6.0 mph SW9.7 kmh SW 10.0 mph16.1 kmh 29.69 in1005.4 mb 0.00 in0.0 mm 0.00 in0.0 mm 0.00 in0.0 mm
04:15 AM 59.8°F15.4°C 40.0°F4.4°C 48% 3.0 mph WSW4.8 kmh WSW 6.0 mph9.7 kmh 29.70 in1005.8 mb 0.00 in0.0 mm 0.00 in0.0 mm 0.00 in0.0 mm
04:20 AM 59.6°F15.3°C 40.4°F4.7°C 49% 3.0 mph W4.8 kmh W 7.0 mph11.3 kmh 29.69 in1005.4 mb 0.00 in0.0 mm 0.00 in0.0 mm 0.00 in0.0 mm
04:25 AM 59.4°F15.2°C 40.2°F4.6°C 49% 6.0 mph SW9.7 kmh SW 7.0 mph11.3 kmh 29.69 in1005.4 mb 0.00 in0.0 mm 0.00 in0.0 mm 0.00 in0.0 mm
04:30 AM 59.2°F15.1°C 40.0°F4.4°C 49% Calm Calm 6.0 mph9.7 kmh 29.69 in1005.4 mb 0.00 in0.0 mm 0.00 in0.0 mm 0.00 in0.0 mm
04:35 AM 59.1°F15.1°C 39.9°F4.4°C 49% 6.0 mph S9.7 kmh S 10.0 mph16.1 kmh 29.69 in1005.4 mb 0.00 in0.0 mm 0.00 in0.0 mm 0.00 in0.0 mm
04:40 AM 59.2°F15.1°C 40.0°F4.4°C 49% 4.0 mph WSW6.4 kmh WSW 9.0 mph14.5 kmh 29.68 in1005.1 mb 0.00 in0.0 mm 0.00 in0.0 mm 0.00 in0.0 mm
04:45 AM 59.1°F15.1°C 39.9°F4.4°C 49% 5.0 mph WSW8.0 kmh WSW 8.0 mph12.9 kmh 29.69 in1005.4 mb 0.00 in0.0 mm 0.00 in0.0 mm 0.00 in0.0 mm
04:50 AM 58.9°F14.9°C 40.2°F4.6°C 50% 3.0 mph W4.8 kmh W 8.0 mph12.9 kmh 29.68 in1005.1 mb 0.00 in0.0 mm 0.00 in0.0 mm 0.00 in0.0 mm
04:55 AM 59.0°F15.0°C 40.3°F4.6°C 50% 4.0 mph SW6.4 kmh SW 8.0 mph12.9 kmh 29.69 in1005.4 mb 0.00 in0.0 mm 0.00 in0.0 mm 0.00 in0.0 mm
05:00 AM 59.1°F15.1°C 40.4°F4.7°C 50% 4.0 mph WSW6.4 kmh WSW 10.0 mph16.1 kmh 29.69 in1005.4 mb 0.00 in0.0 mm 0.00 in0.0 mm 0.00 in0.0 mm
05:05 AM 58.9°F14.9°C 40.2°F4.6°C 50% 3.0 mph SW4.8 kmh SW 8.0 mph12.9 kmh 29.69 in1005.4 mb 0.00 in0.0 mm 0.00 in0.0 mm 0.00 in0.0 mm
05:10 AM 58.8°F14.9°C 40.2°F4.6°C 50% 4.0 mph WSW6.4 kmh WSW 8.0 mph12.9 kmh 29.69 in1005.4 mb 0.00 in0.0 mm 0.00 in0.0 mm 0.00 in0.0 mm
05:15 AM 58.9°F14.9°C 40.2°F4.6°C 50% 3.0 mph WSW4.8 kmh WSW 10.0 mph16.1 kmh 29.69 in1005.4 mb 0.00 in0.0 mm 0.00 in0.0 mm 0.00 in0.0 mm
05:20 AM 58.7°F14.8°C 40.1°F4.5°C 50% 4.0 mph WSW6.4 kmh WSW 12.0 mph19.3 kmh 29.69 in1005.4 mb 0.00 in0.0 mm 0.00 in0.0 mm 0.00 in0.0 mm
05:25 AM 59.1°F15.1°C 39.9°F4.4°C 49% 9.0 mph SW14.5 kmh SW 11.0 mph17.7 kmh 29.69 in1005.4 mb 0.00 in0.0 mm 0.00 in0.0 mm 0.00 in0.0 mm
05:30 AM 59.2°F15.1°C 40.0°F4.4°C 49% 6.0 mph S9.7 kmh S 10.0 mph16.1 kmh 29.69 in1005.4 mb 0.00 in0.0 mm 0.00 in0.0 mm 0.00 in0.0 mm
05:35 AM 59.4°F15.2°C 39.7°F4.3°C 48% 4.0 mph WSW6.4 kmh WSW 12.0 mph19.3 kmh 29.69 in1005.4 mb 0.00 in0.0 mm 0.00 in0.0 mm 0.00 in0.0 mm
05:40 AM 59.9°F15.5°C 40.1°F4.5°C 48% 4.0 mph WSW6.4 kmh WSW 16.0 mph25.7 kmh 29.69 in1005.4 mb 0.00 in0.0 mm 0.00 in0.0 mm 0.00 in0.0 mm
05:45 AM 59.8°F15.4°C 40.0°F4.4°C 48% 4.0 mph SW6.4 kmh SW 7.0 mph11.3 kmh 29.69 in1005.4 mb 0.00 in0.0 mm 0.00 in0.0 mm 0.00 in0.0 mm
05:50 AM 59.6°F15.3°C 39.8°F4.3°C 48% 6.0 mph SW9.7 kmh SW 6.0 mph9.7 kmh 29.69 in1005.4 mb 0.00 in0.0 mm 0.00 in0.0 mm 0.00 in0.0 mm
05:55 AM 59.7°F15.4°C 39.9°F4.4°C 48% 3.0 mph WNW4.8 kmh WNW 7.0 mph11.3 kmh 29.69 in1005.4 mb 0.00 in0.0 mm 0.00 in0.0 mm 0.00 in0.0 mm
06:00 AM 59.6°F15.3°C 39.8°F4.3°C 48% 2.0 mph W3.2 kmh W 6.0 mph9.7 kmh 29.69 in1005.4 mb 0.00 in0.0 mm 0.00 in0.0 mm 0.00 in0.0 mm
06:05 AM 59.5°F15.3°C 40.3°F4.6°C 49% 2.0 mph WNW3.2 kmh WNW 6.0 mph9.7 kmh 29.69 in1005.4 mb 0.00 in0.0 mm 0.00 in0.0 mm 0.00 in0.0 mm
06:10 AM 59.6°F15.3°C 39.8°F4.3°C 48% 3.0 mph SW4.8 kmh SW 9.0 mph14.5 kmh 29.69 in1005.4 mb 0.00 in0.0 mm 0.00 in0.0 mm 0.00 in0.0 mm
06:15 AM 59.9°F15.5°C 40.1°F4.5°C 48% 5.0 mph NW8.0 kmh NW 12.0 mph19.3 kmh 29.70 in1005.8 mb 0.00 in0.0 mm 0.00 in0.0 mm 0.00 in0.0 mm
06:20 AM 60.3°F15.7°C 39.9°F4.4°C 47% 9.0 mph NW14.5 kmh NW 14.0 mph22.5 kmh 29.69 in1005.4 mb 0.00 in0.0 mm 0.00 in0.0 mm 0.00 in0.0 mm
06:25 AM 60.7°F15.9°C 39.7°F4.3°C 46% 6.0 mph NW9.7 kmh NW 16.0 mph25.7 kmh 29.70 in1005.8 mb 0.00 in0.0 mm 0.00 in0.0 mm 0.00 in0.0 mm
06:30 AM 61.0°F16.1°C 40.0°F4.4°C 46% 11.0 mph NW17.7 kmh NW 18.0 mph29.0 kmh 29.70 in1005.8 mb 0.00 in0.0 mm 0.00 in0.0 mm 0.00 in0.0 mm
06:35 AM 61.1°F16.2°C 40.1°F4.5°C 46% 10.0 mph WNW16.1 kmh WNW 16.0 mph25.7 kmh 29.70 in1005.8 mb 0.00 in0.0 mm 0.00 in0.0 mm 0.00 in0.0 mm
06:40 AM 61.3°F16.3°C 40.3°F4.6°C 46% 13.0 mph NW20.9 kmh NW 18.0 mph29.0 kmh 29.70 in1005.8 mb 0.00 in0.0 mm 0.00 in0.0 mm 0.00 in0.0 mm
06:45 AM 61.4°F16.3°C 39.8°F4.3°C 45% 11.0 mph NW17.7 kmh NW 20.0 mph32.2 kmh 29.70 in1005.8 mb 0.00 in0.0 mm 0.00 in0.0 mm 0.00 in0.0 mm
06:50 AM 61.4°F16.3°C 40.4°F4.7°C 46% 6.0 mph NW9.7 kmh NW 14.0 mph22.5 kmh 29.70 in1005.8 mb 0.00 in0.0 mm 0.00 in0.0 mm 0.00 in0.0 mm
06:55 AM 61.3°F16.3°C 40.3°F4.6°C 46% 15.0 mph NW24.1 kmh NW 17.0 mph27.4 kmh 29.71 in1006.1 mb 0.00 in0.0 mm 0.00 in0.0 mm 0.00 in0.0 mm
07:00 AM 61.4°F16.3°C 40.4°F4.7°C 46% 11.0 mph W17.7 kmh W 18.0 mph29.0 kmh 29.71 in1006.1 mb 0.00 in0.0 mm 0.00 in0.0 mm 0.00 in0.0 mm
07:05 AM 61.5°F16.4°C 40.5°F4.7°C 46% 1.0 mph W1.6 kmh W 14.0 mph22.5 kmh 29.70 in1005.8 mb 0.00 in0.0 mm 0.00 in0.0 mm 0.00 in0.0 mm
07:10 AM 61.4°F16.3°C 40.9°F4.9°C 47% 5.0 mph WSW8.0 kmh WSW 12.0 mph19.3 kmh 29.70 in1005.8 mb 0.00 in0.0 mm 0.00 in0.0 mm 0.00 in0.0 mm
07:15 AM 61.3°F16.3°C 40.8°F4.9°C 47% 13.0 mph WNW20.9 kmh WNW 14.0 mph22.5 kmh 29.70 in1005.8 mb 0.00 in0.0 mm 0.00 in0.0 mm 0.00 in0.0 mm
07:20 AM 61.3°F16.3°C 40.8°F4.9°C 47% 2.0 mph W3.2 kmh W 10.0 mph16.1 kmh 29.70 in1005.8 mb 0.00 in0.0 mm 0.00 in0.0 mm 0.00 in0.0 mm
07:25 AM 61.1°F16.2°C 40.1°F4.5°C 46% 10.0 mph NW16.1 kmh NW 14.0 mph22.5 kmh 29.70 in1005.8 mb 0.00 in0.0 mm 0.00 in0.0 mm 0.00 in0.0 mm
07:30 AM 61.1°F16.2°C 41.2°F5.1°C 48% 1.0 mph W1.6 kmh W 11.0 mph17.7 kmh 29.70 in1005.8 mb 0.00 in0.0 mm 0.00 in0.0 mm 0.00 in0.0 mm
07:35 AM 61.1°F16.2°C 41.2°F5.1°C 48% 8.0 mph WNW12.9 kmh WNW 10.0 mph16.1 kmh 29.70 in1005.8 mb 0.00 in0.0 mm 0.00 in0.0 mm 0.00 in0.0 mm
07:40 AM 61.1°F16.2°C 41.2°F5.1°C 48% 3.0 mph WNW4.8 kmh WNW 7.0 mph11.3 kmh 29.71 in1006.1 mb 0.00 in0.0 mm 0.00 in0.0 mm 0.00 in0.0 mm
07:45 AM 61.2°F16.2°C 41.3°F5.2°C 48% 6.0 mph W9.7 kmh W 11.0 mph17.7 kmh 29.71 in1006.1 mb 0.00 in0.0 mm 0.00 in0.0 mm 0.00 in0.0 mm
07:50 AM 61.3°F16.3°C 40.8°F4.9°C 47% 3.0 mph WNW4.8 kmh WNW 11.0 mph17.7 kmh 29.71 in1006.1 mb 0.00 in0.0 mm 0.00 in0.0 mm 0.00 in0.0 mm
07:55 AM 61.7°F16.5°C 40.7°F4.8°C 46% 2.0 mph WNW3.2 kmh WNW 13.0 mph20.9 kmh 29.71 in1006.1 mb 0.00 in0.0 mm 0.00 in0.0 mm 0.00 in0.0 mm
08:00 AM 62.0°F16.7°C 41.5°F5.3°C 47% 7.0 mph WNW11.3 kmh WNW 10.0 mph16.1 kmh 29.70 in1005.8 mb 0.00 in0.0 mm 0.00 in0.0 mm 0.00 in0.0 mm
08:05 AM 62.1°F16.7°C 41.0°F5.0°C 46% 2.0 mph WSW3.2 kmh WSW 11.0 mph17.7 kmh 29.70 in1005.8 mb 0.00 in0.0 mm 0.00 in0.0 mm 0.00 in0.0 mm
08:10 AM 62.5°F16.9°C 40.8°F4.9°C 45% 6.0 mph W9.7 kmh W 12.0 mph19.3 kmh 29.71 in1006.1 mb 0.00 in0.0 mm 0.00 in0.0 mm 0.00 in0.0 mm
08:15 AM 62.9°F17.2°C 41.2°F5.1°C 45% 2.0 mph WNW3.2 kmh WNW 10.0 mph16.1 kmh 29.71 in1006.1 mb 0.00 in0.0 mm 0.00 in0.0 mm 0.00 in0.0 mm
08:20 AM 63.2°F17.3°C 41.5°F5.3°C 45% Calm Calm 11.0 mph17.7 kmh 29.71 in1006.1 mb 0.00 in0.0 mm 0.00 in0.0 mm 0.00 in0.0 mm
08:25 AM 63.4°F17.4°C 41.6°F5.3°C 45% 4.0 mph WNW6.4 kmh WNW 9.0 mph14.5 kmh 29.71 in1006.1 mb 0.00 in0.0 mm 0.00 in0.0 mm 0.00 in0.0 mm
08:30 AM 63.6°F17.6°C 41.8°F5.4°C 45% 1.0 mph SW1.6 kmh SW 10.0 mph16.1 kmh 29.71 in1006.1 mb 0.00 in0.0 mm 0.00 in0.0 mm 0.00 in0.0 mm
08:35 AM 63.9°F17.7°C 41.5°F5.3°C 44% 5.0 mph NW8.0 kmh NW 11.0 mph17.7 kmh 29.71 in1006.1 mb 0.00 in0.0 mm 0.00 in0.0 mm 0.00 in0.0 mm
08:40 AM 64.2°F17.9°C 41.2°F5.1°C 43% 4.0 mph W6.4 kmh W 15.0 mph24.1 kmh 29.71 in1006.1 mb 0.00 in0.0 mm 0.00 in0.0 mm 0.00 in0.0 mm
08:45 AM 64.5°F18.1°C 41.5°F5.3°C 43% 3.0 mph W4.8 kmh W 11.0 mph17.7 kmh 29.71 in1006.1 mb 0.00 in0.0 mm 0.00 in0.0 mm 0.00 in0.0 mm
08:50 AM 64.9°F18.3°C 41.2°F5.1°C 42% 4.0 mph NNW6.4 kmh NNW 12.0 mph19.3 kmh 29.71 in1006.1 mb 0.00 in0.0 mm 0.00 in0.0 mm 0.00 in0.0 mm
08:55 AM 65.3°F18.5°C 41.6°F5.3°C 42% 4.0 mph WSW6.4 kmh WSW 14.0 mph22.5 kmh 29.71 in1006.1 mb 0.00 in0.0 mm 0.00 in0.0 mm 0.00 in0.0 mm
09:00 AM 65.7°F18.7°C 40.7°F4.8°C 40% 6.0 mph NW9.7 kmh NW 13.0 mph20.9 kmh 29.71 in1006.1 mb 0.00 in0.0 mm 0.00 in0.0 mm 0.00 in0.0 mm
09:05 AM 66.1°F18.9°C 41.0°F5.0°C 40% 8.0 mph W12.9 kmh W 13.0 mph20.9 kmh 29.71 in1006.1 mb 0.00 in0.0 mm 0.00 in0.0 mm 0.00 in0.0 mm
09:10 AM 66.3°F19.1°C 40.5°F4.7°C 39% 5.0 mph NW8.0 kmh NW 13.0 mph20.9 kmh 29.71 in1006.1 mb 0.00 in0.0 mm 0.00 in0.0 mm 0.00 in0.0 mm
09:15 AM 66.5°F19.2°C 40.7°F4.8°C 39% 4.0 mph NNW6.4 kmh NNW 13.0 mph20.9 kmh 29.71 in1006.1 mb 0.00 in0.0 mm 0.00 in0.0 mm 0.00 in0.0 mm
09:20 AM 66.5°F19.2°C 40.1°F4.5°C 38% 6.0 mph NW9.7 kmh NW 13.0 mph20.9 kmh 29.71 in1006.1 mb 0.00 in0.0 mm 0.00 in0.0 mm 0.00 in0.0 mm
09:25 AM 66.3°F19.1°C 41.8°F5.4°C 41% 8.0 mph NNW12.9 kmh NNW 14.0 mph22.5 kmh 29.71 in1006.1 mb 0.00 in0.0 mm 0.00 in0.0 mm 0.00 in0.0 mm
09:30 AM 66.3°F19.1°C 40.5°F4.7°C 39% 13.0 mph N20.9 kmh N 13.0 mph20.9 kmh 29.71 in1006.1 mb 0.00 in0.0 mm 0.00 in0.0 mm 0.00 in0.0 mm
09:35 AM 66.4°F19.1°C 41.9°F5.5°C 41% 5.0 mph NW8.0 kmh NW 14.0 mph22.5 kmh 29.71 in1006.1 mb 0.00 in0.0 mm 0.00 in0.0 mm 0.00 in0.0 mm
09:40 AM 66.7°F19.3°C 40.9°F4.9°C 39% 8.0 mph N12.9 kmh N 13.0 mph20.9 kmh 29.71 in1006.1 mb 0.00 in0.0 mm 0.00 in0.0 mm 0.00 in0.0 mm
09:45 AM 67.1°F19.5°C 39.2°F4.0°C 36% 3.0 mph SW4.8 kmh SW 15.0 mph24.1 kmh 29.71 in1006.1 mb 0.00 in0.0 mm 0.00 in0.0 mm 0.00 in0.0 mm
09:50 AM 67.6°F19.8°C 40.3°F4.6°C 37% 5.0 mph NW8.0 kmh NW 11.0 mph17.7 kmh 29.71 in1006.1 mb 0.00 in0.0 mm 0.00 in0.0 mm 0.00 in0.0 mm
09:55 AM 68.0°F20.0°C 40.0°F4.4°C 36% 6.0 mph N9.7 kmh N 11.0 mph17.7 kmh 29.72 in1006.4 mb 0.00 in0.0 mm 0.00 in0.0 mm 0.00 in0.0 mm
10:00 AM 68.4°F20.2°C 39.6°F4.2°C 35% 1.0 mph NE1.6 kmh NE 9.0 mph14.5 kmh 29.72 in1006.4 mb 0.00 in0.0 mm 0.00 in0.0 mm 0.00 in0.0 mm
10:05 AM 68.9°F20.5°C 40.8°F4.9°C 36% Calm Calm 5.0 mph8.0 kmh 29.71 in1006.1 mb 0.00 in0.0 mm 0.00 in0.0 mm 0.00 in0.0 mm
10:10 AM 69.3°F20.7°C 41.1°F5.1°C 36% Calm Calm 12.0 mph19.3 kmh 29.71 in1006.1 mb 0.00 in0.0 mm 0.00 in0.0 mm 0.00 in0.0 mm
10:15 AM 69.4°F20.8°C 41.2°F5.1°C 36% 6.0 mph WSW9.7 kmh WSW 8.0 mph12.9 kmh 29.71 in1006.1 mb 0.00 in0.0 mm 0.00 in0.0 mm 0.00 in0.0 mm
10:20 AM 69.5°F20.8°C 39.8°F4.3°C 34% 6.0 mph NNW9.7 kmh NNW 9.0 mph14.5 kmh 29.71 in1006.1 mb 0.00 in0.0 mm 0.00 in0.0 mm 0.00 in0.0 mm
10:25 AM 69.6°F20.9°C 38.4°F3.6°C 32% 3.0 mph N4.8 kmh N 10.0 mph16.1 kmh 29.71 in1006.1 mb 0.00 in0.0 mm 0.00 in0.0 mm 0.00 in0.0 mm
10:30 AM 69.8°F21.0°C 40.1°F4.5°C 34% 8.0 mph NW12.9 kmh NW 10.0 mph16.1 kmh 29.71 in1006.1 mb 0.00 in0.0 mm 0.00 in0.0 mm 0.00 in0.0 mm
10:35 AM 69.9°F21.1°C 40.2°F4.6°C 34% Calm Calm 9.0 mph14.5 kmh 29.71 in1006.1 mb 0.00 in0.0 mm 0.00 in0.0 mm 0.00 in0.0 mm
10:40 AM 70.1°F21.2°C 41.1°F5.1°C 35% 3.0 mph NW4.8 kmh NW 5.0 mph8.0 kmh 29.72 in1006.4 mb 0.00 in0.0 mm 0.00 in0.0 mm 0.00 in0.0 mm
10:45 AM 70.2°F21.2°C 39.7°F4.3°C 33% 3.0 mph WNW4.8 kmh WNW 13.0 mph20.9 kmh 29.72 in1006.4 mb 0.00 in0.0 mm 0.00 in0.0 mm 0.00 in0.0 mm
10:50 AM 70.3°F21.3°C 38.2°F3.4°C 31% 1.0 mph WNW1.6 kmh WNW 11.0 mph17.7 kmh 29.72 in1006.4 mb 0.00 in0.0 mm 0.00 in0.0 mm 0.00 in0.0 mm
10:55 AM 70.4°F21.3°C 39.1°F3.9°C 32% 3.0 mph NW4.8 kmh NW 7.0 mph11.3 kmh 29.72 in1006.4 mb 0.00 in0.0 mm 0.00 in0.0 mm 0.00 in0.0 mm
11:00 AM 70.5°F21.4°C 39.2°F4.0°C 32% 6.0 mph 9.7 kmh 13.0 mph20.9 kmh 29.72 in1006.4 mb 0.00 in0.0 mm 0.00 in0.0 mm 0.00 in0.0 mm
11:05 AM 70.8°F21.6°C 39.4°F4.1°C 32% 4.0 mph N6.4 kmh N 9.0 mph14.5 kmh 29.72 in1006.4 mb 0.00 in0.0 mm 0.00 in0.0 mm 0.00 in0.0 mm
11:10 AM 71.1°F21.7°C 38.9°F3.8°C 31% 6.0 mph NW9.7 kmh NW 10.0 mph16.1 kmh 29.72 in1006.4 mb 0.00 in0.0 mm 0.00 in0.0 mm 0.00 in0.0 mm
11:15 AM 71.1°F21.7°C 38.9°F3.8°C 31% 7.0 mph WSW11.3 kmh WSW 11.0 mph17.7 kmh 29.73 in1006.8 mb 0.00 in0.0 mm 0.00 in0.0 mm 0.00 in0.0 mm
11:20 AM 71.0°F21.7°C 37.9°F3.3°C 30% 8.0 mph W12.9 kmh W 8.0 mph12.9 kmh 29.72 in1006.4 mb 0.00 in0.0 mm 0.00 in0.0 mm 0.00 in0.0 mm
11:25 AM 71.2°F21.8°C 37.3°F2.9°C 29% 1.0 mph WSW1.6 kmh WSW 8.0 mph12.9 kmh 29.72 in1006.4 mb 0.00 in0.0 mm 0.00 in0.0 mm 0.00 in0.0 mm
11:30 AM 71.3°F21.8°C 35.5°F1.9°C 27% 6.0 mph SSW9.7 kmh SSW 8.0 mph12.9 kmh 29.72 in1006.4 mb 0.00 in0.0 mm 0.00 in0.0 mm 0.00 in0.0 mm
11:35 AM 71.7°F22.1°C 35.9°F2.2°C 27% 1.0 mph W1.6 kmh W 12.0 mph19.3 kmh 29.72 in1006.4 mb 0.00 in0.0 mm 0.00 in0.0 mm 0.00 in0.0 mm
11:40 AM 71.7°F22.1°C 35.9°F2.2°C 27% 2.0 mph NW3.2 kmh NW 10.0 mph16.1 kmh 29.72 in1006.4 mb 0.00 in0.0 mm 0.00 in0.0 mm 0.00 in0.0 mm
11:45 AM 71.7°F22.1°C 34.9°F1.6°C 26% Calm Calm 11.0 mph17.7 kmh 29.72 in1006.4 mb 0.00 in0.0 mm 0.00 in0.0 mm 0.00 in0.0 mm
11:50 AM 71.3°F21.8°C 35.5°F1.9°C 27% 5.0 mph WSW8.0 kmh WSW 10.0 mph16.1 kmh 29.72 in1006.4 mb 0.00 in0.0 mm 0.00 in0.0 mm 0.00 in0.0 mm
11:55 AM 71.1°F21.7°C 38.0°F3.3°C 30% 3.0 mph WNW4.8 kmh WNW 9.0 mph14.5 kmh 29.72 in1006.4 mb 0.00 in0.0 mm 0.00 in0.0 mm 0.00 in0.0 mm
12:00 PM 70.8°F21.6°C 33.2°F0.7°C 25% 7.0 mph WSW11.3 kmh WSW 15.0 mph24.1 kmh 29.73 in1006.8 mb 0.00 in0.0 mm 0.00 in0.0 mm 0.00 in0.0 mm
12:05 PM 71.2°F21.8°C 37.3°F2.9°C 29% 6.0 mph SW9.7 kmh SW 13.0 mph20.9 kmh 29.72 in1006.4 mb 0.00 in0.0 mm 0.00 in0.0 mm 0.00 in0.0 mm
12:10 PM 71.8°F22.1°C 36.9°F2.7°C 28% 1.0 mph W1.6 kmh W 8.0 mph12.9 kmh 29.72 in1006.4 mb 0.00 in0.0 mm 0.00 in0.0 mm 0.00 in0.0 mm
12:15 PM 71.7°F22.1°C 33.9°F1.1°C 25% 5.0 mph NW8.0 kmh NW 13.0 mph20.9 kmh 29.72 in1006.4 mb 0.00 in0.0 mm 0.00 in0.0 mm 0.00 in0.0 mm
12:20 PM 71.6°F22.0°C 37.6°F3.1°C 29% 8.0 mph WSW12.9 kmh WSW 18.0 mph29.0 kmh 29.72 in1006.4 mb 0.00 in0.0 mm 0.00 in0.0 mm 0.00 in0.0 mm
12:25 PM 72.1°F22.3°C 34.3°F1.3°C 25% 9.0 mph WNW14.5 kmh WNW 17.0 mph27.4 kmh 29.72 in1006.4 mb 0.00 in0.0 mm 0.00 in0.0 mm 0.00 in0.0 mm
12:30 PM 72.1°F22.3°C 38.9°F3.8°C 30% 3.0 mph WSW4.8 kmh WSW 14.0 mph22.5 kmh 29.71 in1006.1 mb 0.00 in0.0 mm 0.00 in0.0 mm 0.00 in0.0 mm
12:35 PM 72.6°F22.6°C 35.7°F2.1°C 26% 4.0 mph NW6.4 kmh NW 12.0 mph19.3 kmh 29.71 in1006.1 mb 0.00 in0.0 mm 0.00 in0.0 mm 0.00 in0.0 mm
12:40 PM 73.2°F22.9°C 36.2°F2.3°C 26% 8.0 mph WSW12.9 kmh WSW 11.0 mph17.7 kmh 29.71 in1006.1 mb 0.00 in0.0 mm 0.00 in0.0 mm 0.00 in0.0 mm
12:45 PM 73.2°F22.9°C 36.2°F2.3°C 26% Calm Calm 12.0 mph19.3 kmh 29.71 in1006.1 mb 0.00 in0.0 mm 0.00 in0.0 mm 0.00 in0.0 mm
12:50 PM 73.4°F23.0°C 39.1°F3.9°C 29% 3.0 mph W4.8 kmh W 11.0 mph17.7 kmh 29.71 in1006.1 mb 0.00 in0.0 mm 0.00 in0.0 mm 0.00 in0.0 mm
12:55 PM 73.5°F23.1°C 37.4°F3.0°C 27% 5.0 mph WSW8.0 kmh WSW 13.0 mph20.9 kmh 29.71 in1006.1 mb 0.00 in0.0 mm 0.00 in0.0 mm 0.00 in0.0 mm
01:00 PM 73.3°F22.9°C 36.3°F2.4°C 26% 7.0 mph NW11.3 kmh NW 13.0 mph20.9 kmh 29.70 in1005.8 mb 0.00 in0.0 mm 0.00 in0.0 mm 0.00 in0.0 mm
01:05 PM 72.9°F22.7°C 37.8°F3.2°C 28% 4.0 mph N6.4 kmh N 11.0 mph17.7 kmh 29.70 in1005.8 mb 0.00 in0.0 mm 0.00 in0.0 mm 0.00 in0.0 mm
01:10 PM 73.7°F23.2°C 39.4°F4.1°C 29% 2.0 mph WSW3.2 kmh WSW 10.0 mph16.1 kmh 29.70 in1005.8 mb 0.00 in0.0 mm 0.00 in0.0 mm 0.00 in0.0 mm
01:15 PM 74.0°F23.3°C 38.8°F3.8°C 28% 1.0 mph SSW1.6 kmh SSW 10.0 mph16.1 kmh 29.70 in1005.8 mb 0.00 in0.0 mm 0.00 in0.0 mm 0.00 in0.0 mm
01:20 PM 73.9°F23.3°C 39.6°F4.2°C 29% 5.0 mph NW8.0 kmh NW 9.0 mph14.5 kmh 29.70 in1005.8 mb 0.00 in0.0 mm 0.00 in0.0 mm 0.00 in0.0 mm
01:25 PM 73.8°F23.2°C 38.6°F3.7°C 28% 5.0 mph SW8.0 kmh SW 9.0 mph14.5 kmh 29.70 in1005.8 mb 0.00 in0.0 mm 0.00 in0.0 mm 0.00 in0.0 mm
01:30 PM 73.4°F23.0°C 38.3°F3.5°C 28% 5.0 mph SW8.0 kmh SW 10.0 mph16.1 kmh 29.70 in1005.8 mb 0.00 in0.0 mm 0.00 in0.0 mm 0.00 in0.0 mm
01:35 PM 73.5°F23.1°C 40.1°F4.5°C 30% 2.0 mph SW3.2 kmh SW 6.0 mph9.7 kmh 29.69 in1005.4 mb 0.00 in0.0 mm 0.00 in0.0 mm 0.00 in0.0 mm
01:40 PM 74.7°F23.7°C 40.3°F4.6°C 29% 1.0 mph SSW1.6 kmh SSW 10.0 mph16.1 kmh 29.69 in1005.4 mb 0.00 in0.0 mm 0.00 in0.0 mm 0.00 in0.0 mm
01:45 PM 74.9°F23.8°C 38.6°F3.7°C 27% Calm Calm 14.0 mph22.5 kmh 29.69 in1005.4 mb 0.00 in0.0 mm 0.00 in0.0 mm 0.00 in0.0 mm
01:50 PM 74.1°F23.4°C 38.8°F3.8°C 28% Calm Calm 3.0 mph4.8 kmh 29.69 in1005.4 mb 0.00 in0.0 mm 0.00 in0.0 mm 0.00 in0.0 mm
01:55 PM 73.4°F23.0°C 39.1°F3.9°C 29% 1.0 mph WSW1.6 kmh WSW 4.0 mph6.4 kmh 29.69 in1005.4 mb 0.00 in0.0 mm 0.00 in0.0 mm 0.00 in0.0 mm
02:00 PM 73.1°F22.8°C 38.0°F3.3°C 28% Calm Calm 9.0 mph14.5 kmh 29.69 in1005.4 mb 0.00 in0.0 mm 0.00 in0.0 mm 0.00 in0.0 mm
02:05 PM 72.7°F22.6°C 39.4°F4.1°C 30% 4.0 mph WNW6.4 kmh WNW 9.0 mph14.5 kmh 29.68 in1005.1 mb 0.00 in0.0 mm 0.00 in0.0 mm 0.00 in0.0 mm
02:10 PM 72.3°F22.4°C 40.7°F4.8°C 32% 1.0 mph NNW1.6 kmh NNW 7.0 mph11.3 kmh 29.68 in1005.1 mb 0.00 in0.0 mm 0.00 in0.0 mm 0.00 in0.0 mm
02:15 PM 72.0°F22.2°C 38.8°F3.8°C 30% 4.0 mph SW6.4 kmh SW 11.0 mph17.7 kmh 29.68 in1005.1 mb 0.00 in0.0 mm 0.00 in0.0 mm 0.00 in0.0 mm
02:20 PM 72.8°F22.7°C 40.3°F4.6°C 31% 5.0 mph NNW8.0 kmh NNW 6.0 mph9.7 kmh 29.67 in1004.7 mb 0.00 in0.0 mm 0.00 in0.0 mm 0.00 in0.0 mm
02:25 PM 73.8°F23.2°C 40.4°F4.7°C 30% Calm Calm 14.0 mph22.5 kmh 29.68 in1005.1 mb 0.00 in0.0 mm 0.00 in0.0 mm 0.00 in0.0 mm
02:30 PM 74.9°F23.8°C 40.4°F4.7°C 29% 4.0 mph S6.4 kmh S 7.0 mph11.3 kmh 29.67 in1004.7 mb 0.00 in0.0 mm 0.00 in0.0 mm 0.00 in0.0 mm
02:35 PM 75.7°F24.3°C 39.3°F4.1°C 27% 1.0 mph NNW1.6 kmh NNW 10.0 mph16.1 kmh 29.67 in1004.7 mb 0.00 in0.0 mm 0.00 in0.0 mm 0.00 in0.0 mm
02:40 PM 75.3°F24.1°C 39.9°F4.4°C 28% 9.0 mph SW14.5 kmh SW 19.0 mph30.6 kmh 29.67 in1004.7 mb 0.00 in0.0 mm 0.00 in0.0 mm 0.00 in0.0 mm
02:45 PM 75.7°F24.3°C 41.1°F5.1°C 29% 1.0 mph NW1.6 kmh NW 14.0 mph22.5 kmh 29.66 in1004.4 mb 0.00 in0.0 mm 0.00 in0.0 mm 0.00 in0.0 mm
02:50 PM 76.0°F24.4°C 38.6°F3.7°C 26% 5.0 mph SW8.0 kmh SW 12.0 mph19.3 kmh 29.66 in1004.4 mb 0.00 in0.0 mm 0.00 in0.0 mm 0.00 in0.0 mm
02:55 PM 75.7°F24.3°C 39.3°F4.1°C 27% 3.0 mph WSW4.8 kmh WSW 12.0 mph19.3 kmh 29.66 in1004.4 mb 0.00 in0.0 mm 0.00 in0.0 mm 0.00 in0.0 mm
03:00 PM 76.4°F24.7°C 39.9°F4.4°C 27% 4.0 mph W6.4 kmh W 10.0 mph16.1 kmh 29.66 in1004.4 mb 0.00 in0.0 mm 0.00 in0.0 mm 0.00 in0.0 mm
03:05 PM 76.5°F24.7°C 39.0°F3.9°C 26% 2.0 mph W3.2 kmh W 10.0 mph16.1 kmh 29.66 in1004.4 mb 0.00 in0.0 mm 0.00 in0.0 mm 0.00 in0.0 mm
03:10 PM 75.6°F24.2°C 38.2°F3.4°C 26% 5.0 mph NW8.0 kmh NW 9.0 mph14.5 kmh 29.66 in1004.4 mb 0.00 in0.0 mm 0.00 in0.0 mm 0.00 in0.0 mm
03:15 PM 75.6°F24.2°C 41.0°F5.0°C 29% 4.0 mph WNW6.4 kmh WNW 9.0 mph14.5 kmh 29.66 in1004.4 mb 0.00 in0.0 mm 0.00 in0.0 mm 0.00 in0.0 mm
03:20 PM 76.2°F24.6°C 38.7°F3.7°C 26% 3.0 mph WSW4.8 kmh WSW 9.0 mph14.5 kmh 29.66 in1004.4 mb 0.00 in0.0 mm 0.00 in0.0 mm 0.00 in0.0 mm
03:25 PM 76.4°F24.7°C 38.9°F3.8°C 26% 2.0 mph WSW3.2 kmh WSW 9.0 mph14.5 kmh 29.66 in1004.4 mb 0.00 in0.0 mm 0.00 in0.0 mm 0.00 in0.0 mm
03:30 PM 75.8°F24.3°C 37.4°F3.0°C 25% 3.0 mph SW4.8 kmh SW 12.0 mph19.3 kmh 29.66 in1004.4 mb 0.00 in0.0 mm 0.00 in0.0 mm 0.00 in0.0 mm
03:36 PM 74.8°F23.8°C 39.4°F4.1°C 28% 4.0 mph WSW6.4 kmh WSW 8.0 mph12.9 kmh 29.66 in1004.4 mb 0.00 in0.0 mm 0.00 in0.0 mm 0.00 in0.0 mm
03:40 PM 74.2°F23.4°C 38.9°F3.8°C 28% 4.0 mph W6.4 kmh W 6.0 mph9.7 kmh 29.65 in1004.1 mb 0.00 in0.0 mm 0.00 in0.0 mm 0.00 in0.0 mm
03:45 PM 73.5°F23.1°C 40.1°F4.5°C 30% 2.0 mph SW3.2 kmh SW 14.0 mph22.5 kmh 29.65 in1004.1 mb 0.00 in0.0 mm 0.00 in0.0 mm 0.00 in0.0 mm
03:50 PM 73.0°F22.8°C 40.5°F4.7°C 31% Calm Calm 5.0 mph8.0 kmh 29.65 in1004.1 mb 0.00 in0.0 mm 0.00 in0.0 mm 0.00 in0.0 mm
03:55 PM 72.6°F22.6°C 40.2°F4.6°C 31% Calm Calm 4.0 mph6.4 kmh 29.65 in1004.1 mb 0.00 in0.0 mm 0.00 in0.0 mm 0.00 in0.0 mm
04:00 PM 72.2°F22.3°C 46.5°F8.1°C 40% 1.0 mph SSE1.6 kmh SSE 2.0 mph3.2 kmh 29.66 in1004.4 mb 0.01 in0.3 mm 0.01 in0.3 mm 0.01 in0.3 mm
04:05 PM 71.3°F21.8°C 48.8°F9.3°C 45% Calm Calm 3.0 mph4.8 kmh 29.66 in1004.4 mb 0.02 in0.5 mm 0.12 in3.0 mm 0.02 in0.5 mm
04:10 PM 70.2°F21.2°C 50.1°F10.1°C 49% Calm Calm 2.0 mph3.2 kmh 29.65 in1004.1 mb 0.02 in0.5 mm 0.00 in0.0 mm 0.02 in0.5 mm
04:15 PM 69.0°F20.6°C 50.1°F10.1°C 51% 3.0 mph NE4.8 kmh NE 10.0 mph16.1 kmh 29.66 in1004.4 mb 0.03 in0.8 mm 0.12 in3.0 mm 0.03 in0.8 mm
04:20 PM 67.6°F19.8°C 44.2°F6.8°C 43% 2.0 mph N3.2 kmh N 10.0 mph16.1 kmh 29.65 in1004.1 mb 0.03 in0.8 mm 0.00 in0.0 mm 0.03 in0.8 mm
04:25 PM 67.0°F19.4°C 42.5°F5.8°C 41% 2.0 mph N3.2 kmh N 10.0 mph16.1 kmh 29.65 in1004.1 mb 0.04 in1.0 mm 0.12 in3.0 mm 0.04 in1.0 mm
04:30 PM 67.9°F19.9°C 43.3°F6.3°C 41% 5.0 mph NNW8.0 kmh NNW 10.0 mph16.1 kmh 29.65 in1004.1 mb 0.04 in1.0 mm 0.00 in0.0 mm 0.04 in1.0 mm
04:35 PM 69.5°F20.8°C 43.4°F6.3°C 39% 4.0 mph NNW6.4 kmh NNW 9.0 mph14.5 kmh 29.64 in1003.7 mb 0.04 in1.0 mm 0.00 in0.0 mm 0.04 in1.0 mm
04:40 PM 70.4°F21.3°C 44.2°F6.8°C 39% 9.0 mph N14.5 kmh N 16.0 mph25.7 kmh 29.64 in1003.7 mb 0.04 in1.0 mm 0.00 in0.0 mm 0.04 in1.0 mm
04:45 PM 71.0°F21.7°C 44.1°F6.7°C 38% 1.0 mph 1.6 kmh 10.0 mph16.1 kmh 29.64 in1003.7 mb 0.04 in1.0 mm 0.00 in0.0 mm 0.04 in1.0 mm
04:50 PM 72.0°F22.2°C 45.6°F7.6°C 39% 2.0 mph N3.2 kmh N 8.0 mph12.9 kmh 29.64 in1003.7 mb 0.04 in1.0 mm 0.00 in0.0 mm 0.04 in1.0 mm
04:55 PM 72.9°F22.7°C 44.3°F6.8°C 36% 3.0 mph WNW4.8 kmh WNW 13.0 mph20.9 kmh 29.64 in1003.7 mb 0.04 in1.0 mm 0.00 in0.0 mm 0.04 in1.0 mm
05:00 PM 73.6°F23.1°C 43.4°F6.3°C 34% 2.0 mph W3.2 kmh W 9.0 mph14.5 kmh 29.64 in1003.7 mb 0.03 in0.8 mm 0.00 in0.0 mm 0.04 in1.0 mm
05:05 PM 74.1°F23.4°C 42.3°F5.7°C 32% 4.0 mph NW6.4 kmh NW 11.0 mph17.7 kmh 29.64 in1003.7 mb 0.02 in0.5 mm 0.00 in0.0 mm 0.04 in1.0 mm
05:10 PM 73.6°F23.1°C 40.2°F4.6°C 30% 8.0 mph NNW12.9 kmh NNW 12.0 mph19.3 kmh 29.65 in1004.1 mb 0.02 in0.5 mm 0.00 in0.0 mm 0.04 in1.0 mm
05:15 PM 72.4°F22.4°C 38.3°F3.5°C 29% 6.0 mph W9.7 kmh W 15.0 mph24.1 kmh 29.65 in1004.1 mb 0.01 in0.3 mm 0.00 in0.0 mm 0.04 in1.0 mm
05:20 PM 71.6°F22.0°C 38.5°F3.6°C 30% Calm Calm 12.0 mph19.3 kmh 29.65 in1004.1 mb 0.01 in0.3 mm 0.00 in0.0 mm 0.04 in1.0 mm
05:26 PM 71.9°F22.2°C 37.9°F3.3°C 29% 2.0 mph NW3.2 kmh NW 13.0 mph20.9 kmh 29.65 in1004.1 mb 0.00 in0.0 mm 0.00 in0.0 mm 0.04 in1.0 mm
05:30 PM 72.1°F22.3°C 39.7°F4.3°C 31% 3.0 mph N4.8 kmh N 14.0 mph22.5 kmh 29.65 in1004.1 mb 0.00 in0.0 mm 0.00 in0.0 mm 0.04 in1.0 mm
05:35 PM 72.3°F22.4°C 39.1°F3.9°C 30% 2.0 mph WNW3.2 kmh WNW 11.0 mph17.7 kmh 29.65 in1004.1 mb 0.00 in0.0 mm 0.00 in0.0 mm 0.04 in1.0 mm
05:40 PM 72.0°F22.2°C 39.6°F4.2°C 31% 13.0 mph N20.9 kmh N 15.0 mph24.1 kmh 29.66 in1004.4 mb 0.00 in0.0 mm 0.00 in0.0 mm 0.04 in1.0 mm
05:45 PM 71.9°F22.2°C 39.6°F4.2°C 31% 6.0 mph W9.7 kmh W 20.0 mph32.2 kmh 29.66 in1004.4 mb 0.00 in0.0 mm 0.00 in0.0 mm 0.04 in1.0 mm
05:50 PM 71.7°F22.1°C 40.2°F4.6°C 32% 9.0 mph NW14.5 kmh NW 21.0 mph33.8 kmh 29.66 in1004.4 mb 0.00 in0.0 mm 0.00 in0.0 mm 0.04 in1.0 mm
05:55 PM 70.8°F21.6°C 38.6°F3.7°C 31% 4.0 mph NW6.4 kmh NW 28.0 mph45.1 kmh 29.66 in1004.4 mb 0.00 in0.0 mm 0.00 in0.0 mm 0.04 in1.0 mm
06:00 PM 69.5°F20.8°C 39.1°F3.9°C 33% 5.0 mph NNW8.0 kmh NNW 26.0 mph41.8 kmh 29.66 in1004.4 mb 0.00 in0.0 mm 0.00 in0.0 mm 0.04 in1.0 mm
06:05 PM 68.1°F20.1°C 38.6°F3.7°C 34% 12.0 mph SW19.3 kmh SW 29.0 mph46.7 kmh 29.66 in1004.4 mb 0.00 in0.0 mm 0.00 in0.0 mm 0.04 in1.0 mm
06:10 PM 67.2°F19.6°C 38.6°F3.7°C 35% 9.0 mph N14.5 kmh N 31.0 mph49.9 kmh 29.66 in1004.4 mb 0.00 in0.0 mm 0.00 in0.0 mm 0.04 in1.0 mm
06:15 PM 66.6°F19.2°C 38.8°F3.8°C 36% 13.0 mph NW20.9 kmh NW 24.0 mph38.6 kmh 29.66 in1004.4 mb 0.00 in0.0 mm 0.00 in0.0 mm 0.04 in1.0 mm
06:20 PM 66.4°F19.1°C 37.9°F3.3°C 35% 10.0 mph NW16.1 kmh NW 28.0 mph45.1 kmh 29.66 in1004.4 mb 0.00 in0.0 mm 0.00 in0.0 mm 0.04 in1.0 mm
06:25 PM 66.5°F19.2°C 37.2°F2.9°C 34% 9.0 mph W14.5 kmh W 27.0 mph43.5 kmh 29.67 in1004.7 mb 0.00 in0.0 mm 0.00 in0.0 mm 0.04 in1.0 mm
06:30 PM 66.2°F19.0°C 36.9°F2.7°C 34% 17.0 mph WNW27.4 kmh WNW 21.0 mph33.8 kmh 29.67 in1004.7 mb 0.00 in0.0 mm 0.00 in0.0 mm 0.04 in1.0 mm
06:35 PM 65.9°F18.8°C 37.4°F3.0°C 35% 10.0 mph NW16.1 kmh NW 22.0 mph35.4 kmh 29.67 in1004.7 mb 0.00 in0.0 mm 0.00 in0.0 mm 0.04 in1.0 mm
06:40 PM 65.3°F18.5°C 37.6°F3.1°C 36% 3.0 mph WNW4.8 kmh WNW 18.0 mph29.0 kmh 29.68 in1005.1 mb 0.00 in0.0 mm 0.00 in0.0 mm 0.04 in1.0 mm
06:45 PM 64.8°F18.2°C 37.2°F2.9°C 36% 6.0 mph NW9.7 kmh NW 28.0 mph45.1 kmh 29.69 in1005.4 mb 0.00 in0.0 mm 0.00 in0.0 mm 0.04 in1.0 mm
06:50 PM 64.6°F18.1°C 37.0°F2.8°C 36% 4.0 mph NW6.4 kmh NW 17.0 mph27.4 kmh 29.68 in1005.1 mb 0.00 in0.0 mm 0.00 in0.0 mm 0.04 in1.0 mm
06:55 PM 64.8°F18.2°C 37.9°F3.3°C 37% 4.0 mph WSW6.4 kmh WSW 13.0 mph20.9 kmh 29.69 in1005.4 mb 0.00 in0.0 mm 0.00 in0.0 mm 0.04 in1.0 mm
07:00 PM 65.8°F18.8°C 38.7°F3.7°C 37% 5.0 mph NNW8.0 kmh NNW 10.0 mph16.1 kmh 29.69 in1005.4 mb 0.00 in0.0 mm 0.00 in0.0 mm 0.04 in1.0 mm
07:05 PM 66.7°F19.3°C 38.8°F3.8°C 36% 2.0 mph NW3.2 kmh NW 9.0 mph14.5 kmh 29.70 in1005.8 mb 0.00 in0.0 mm 0.00 in0.0 mm 0.04 in1.0 mm
07:10 PM 67.1°F19.5°C 38.5°F3.6°C 35% 4.0 mph SW6.4 kmh SW 8.0 mph12.9 kmh 29.69 in1005.4 mb 0.00 in0.0 mm 0.00 in0.0 mm 0.04 in1.0 mm
07:15 PM 67.1°F19.5°C 39.2°F4.0°C 36% 4.0 mph SSW6.4 kmh SSW 5.0 mph8.0 kmh 29.69 in1005.4 mb 0.00 in0.0 mm 0.00 in0.0 mm 0.04 in1.0 mm
07:20 PM 67.4°F19.7°C 38.7°F3.7°C 35% 2.0 mph S3.2 kmh S 4.0 mph6.4 kmh 29.68 in1005.1 mb 0.00 in0.0 mm 0.00 in0.0 mm 0.04 in1.0 mm
07:25 PM 67.5°F19.7°C 40.3°F4.6°C 37% Calm Calm 2.0 mph3.2 kmh 29.68 in1005.1 mb 0.00 in0.0 mm 0.00 in0.0 mm 0.04 in1.0 mm
07:30 PM 67.5°F19.7°C 40.9°F4.9°C 38% Calm Calm 4.0 mph6.4 kmh 29.68 in1005.1 mb 0.00 in0.0 mm 0.00 in0.0 mm 0.04 in1.0 mm
07:35 PM 67.8°F19.9°C 37.6°F3.1°C 33% 3.0 mph S4.8 kmh S 4.0 mph6.4 kmh 29.67 in1004.7 mb 0.00 in0.0 mm 0.00 in0.0 mm 0.04 in1.0 mm
07:40 PM 67.7°F19.8°C 39.7°F4.3°C 36% Calm Calm 5.0 mph8.0 kmh 29.67 in1004.7 mb 0.00 in0.0 mm 0.00 in0.0 mm 0.04 in1.0 mm
07:45 PM 67.5°F19.7°C 39.6°F4.2°C 36% 6.0 mph SE9.7 kmh SE 7.0 mph11.3 kmh 29.67 in1004.7 mb 0.00 in0.0 mm 0.00 in0.0 mm 0.04 in1.0 mm
07:50 PM 66.9°F19.4°C 40.4°F4.7°C 38% 1.0 mph SSE1.6 kmh SSE 7.0 mph11.3 kmh 29.68 in1005.1 mb 0.00 in0.0 mm 0.00 in0.0 mm 0.04 in1.0 mm
07:55 PM 66.0°F18.9°C 40.3°F4.6°C 39% 4.0 mph SSE6.4 kmh SSE 9.0 mph14.5 kmh 29.68 in1005.1 mb 0.00 in0.0 mm 0.00 in0.0 mm 0.04 in1.0 mm
08:00 PM 65.1°F18.4°C 40.8°F4.9°C 41% 9.0 mph SSE14.5 kmh SSE 10.0 mph16.1 kmh 29.68 in1005.1 mb 0.00 in0.0 mm 0.00 in0.0 mm 0.04 in1.0 mm
08:05 PM 63.7°F17.6°C 42.5°F5.8°C 46% 7.0 mph S11.3 kmh S 12.0 mph19.3 kmh 29.68 in1005.1 mb 0.00 in0.0 mm 0.00 in0.0 mm 0.04 in1.0 mm
08:10 PM 62.1°F16.7°C 42.7°F5.9°C 49% 8.0 mph SE12.9 kmh SE 12.0 mph19.3 kmh 29.68 in1005.1 mb 0.00 in0.0 mm 0.00 in0.0 mm 0.04 in1.0 mm
08:15 PM 61.1°F16.2°C 42.3°F5.7°C 50% 8.0 mph SE12.9 kmh SE 11.0 mph17.7 kmh 29.67 in1004.7 mb 0.00 in0.0 mm 0.00 in0.0 mm 0.04 in1.0 mm
08:20 PM 60.5°F15.8°C 42.2°F5.7°C 51% 3.0 mph SE4.8 kmh SE 12.0 mph19.3 kmh 29.68 in1005.1 mb 0.00 in0.0 mm 0.00 in0.0 mm 0.04 in1.0 mm
08:25 PM 60.1°F15.6°C 42.4°F5.8°C 52% 2.0 mph S3.2 kmh S 10.0 mph16.1 kmh 29.68 in1005.1 mb 0.00 in0.0 mm 0.00 in0.0 mm 0.04 in1.0 mm
08:30 PM 59.8°F15.4°C 42.1°F5.6°C 52% 4.0 mph SSW6.4 kmh SSW 4.0 mph6.4 kmh 29.68 in1005.1 mb 0.00 in0.0 mm 0.00 in0.0 mm 0.04 in1.0 mm
08:35 PM 59.6°F15.3°C 42.9°F6.1°C 54% 3.0 mph SSW4.8 kmh SSW 5.0 mph8.0 kmh 29.68 in1005.1 mb 0.00 in0.0 mm 0.00 in0.0 mm 0.04 in1.0 mm
08:40 PM 59.4°F15.2°C 42.2°F5.7°C 53% 2.0 mph S3.2 kmh S 10.0 mph16.1 kmh 29.68 in1005.1 mb 0.00 in0.0 mm 0.00 in0.0 mm 0.04 in1.0 mm
08:45 PM 59.4°F15.2°C 42.2°F5.7°C 53% Calm Calm 3.0 mph4.8 kmh 29.67 in1004.7 mb 0.00 in0.0 mm 0.00 in0.0 mm 0.04 in1.0 mm
08:50 PM 59.3°F15.2°C 42.6°F5.9°C 54% Calm Calm 2.0 mph3.2 kmh 29.67 in1004.7 mb 0.00 in0.0 mm 0.00 in0.0 mm 0.04 in1.0 mm
08:55 PM 59.1°F15.1°C 42.9°F6.1°C 55% Calm Calm -- 29.68 in1005.1 mb 0.00 in0.0 mm 0.00 in0.0 mm 0.04 in1.0 mm
09:00 PM 59.0°F15.0°C 42.3°F5.7°C 54% Calm Calm 1.0 mph1.6 kmh 29.68 in1005.1 mb 0.00 in0.0 mm 0.00 in0.0 mm 0.04 in1.0 mm
09:05 PM 58.9°F14.9°C 42.2°F5.7°C 54% Calm Calm -- 29.68 in1005.1 mb 0.00 in0.0 mm 0.00 in0.0 mm 0.04 in1.0 mm
09:10 PM 59.0°F15.0°C 42.3°F5.7°C 54% 1.0 mph S1.6 kmh S 1.0 mph1.6 kmh 29.68 in1005.1 mb 0.00 in0.0 mm 0.00 in0.0 mm 0.04 in1.0 mm
09:15 PM 59.0°F15.0°C 42.3°F5.7°C 54% 1.0 mph S1.6 kmh S 2.0 mph3.2 kmh 29.68 in1005.1 mb 0.00 in0.0 mm 0.00 in0.0 mm 0.04 in1.0 mm
09:20 PM 59.1°F15.1°C 41.9°F5.5°C 53% 2.0 mph S3.2 kmh S 3.0 mph4.8 kmh 29.68 in1005.1 mb 0.00 in0.0 mm 0.00 in0.0 mm 0.04 in1.0 mm
09:25 PM 59.2°F15.1°C 41.5°F5.3°C 52% 2.0 mph SSW3.2 kmh SSW 4.0 mph6.4 kmh 29.68 in1005.1 mb 0.00 in0.0 mm 0.00 in0.0 mm 0.04 in1.0 mm
09:30 PM 59.5°F15.3°C 41.3°F5.2°C 51% 1.0 mph SSW1.6 kmh SSW 3.0 mph4.8 kmh 29.68 in1005.1 mb 0.00 in0.0 mm 0.00 in0.0 mm 0.04 in1.0 mm
09:35 PM 59.7°F15.4°C 41.5°F5.3°C 51% 2.0 mph SSW3.2 kmh SSW 3.0 mph4.8 kmh 29.68 in1005.1 mb 0.00 in0.0 mm 0.00 in0.0 mm 0.04 in1.0 mm
09:40 PM 60.0°F15.6°C 41.3°F5.2°C 50% Calm Calm 3.0 mph4.8 kmh 29.69 in1005.4 mb 0.00 in0.0 mm 0.00 in0.0 mm 0.04 in1.0 mm
09:45 PM 60.1°F15.6°C 40.8°F4.9°C 49% 2.0 mph SW3.2 kmh SW 3.0 mph4.8 kmh 29.69 in1005.4 mb 0.00 in0.0 mm 0.00 in0.0 mm 0.04 in1.0 mm
09:50 PM 60.2°F15.7°C 40.9°F4.9°C 49% 2.0 mph SW3.2 kmh SW 3.0 mph4.8 kmh 29.69 in1005.4 mb 0.00 in0.0 mm 0.00 in0.0 mm 0.04 in1.0 mm
09:55 PM 60.4°F15.8°C 40.6°F4.8°C 48% Calm Calm 3.0 mph4.8 kmh 29.69 in1005.4 mb 0.00 in0.0 mm 0.00 in0.0 mm 0.04 in1.0 mm
10:00 PM 60.5°F15.8°C 40.7°F4.8°C 48% Calm Calm 2.0 mph3.2 kmh 29.69 in1005.4 mb 0.00 in0.0 mm 0.00 in0.0 mm 0.04 in1.0 mm
10:05 PM 60.4°F15.8°C 40.6°F4.8°C 48% 1.0 mph SW1.6 kmh SW 1.0 mph1.6 kmh 29.69 in1005.4 mb 0.00 in0.0 mm 0.00 in0.0 mm 0.04 in1.0 mm
10:10 PM 60.4°F15.8°C 40.6°F4.8°C 48% 2.0 mph SW3.2 kmh SW 3.0 mph4.8 kmh 29.69 in1005.4 mb 0.00 in0.0 mm 0.00 in0.0 mm 0.04 in1.0 mm
10:15 PM 60.4°F15.8°C 40.6°F4.8°C 48% 1.0 mph SW1.6 kmh SW 3.0 mph4.8 kmh 29.69 in1005.4 mb 0.00 in0.0 mm 0.00 in0.0 mm 0.04 in1.0 mm
10:20 PM 60.5°F15.8°C 40.1°F4.5°C 47% 2.0 mph SW3.2 kmh SW 3.0 mph4.8 kmh 29.69 in1005.4 mb 0.00 in0.0 mm 0.00 in0.0 mm 0.04 in1.0 mm
10:25 PM 60.6°F15.9°C 40.2°F4.6°C 47% 2.0 mph SSW3.2 kmh SSW 3.0 mph4.8 kmh 29.69 in1005.4 mb 0.00 in0.0 mm 0.00 in0.0 mm 0.04 in1.0 mm
10:30 PM 60.7°F15.9°C 39.7°F4.3°C 46% Calm Calm 3.0 mph4.8 kmh 29.69 in1005.4 mb 0.00 in0.0 mm 0.00 in0.0 mm 0.04 in1.0 mm
10:35 PM 60.7°F15.9°C 39.7°F4.3°C 46% 2.0 mph SSW3.2 kmh SSW 3.0 mph4.8 kmh 29.69 in1005.4 mb 0.00 in0.0 mm 0.00 in0.0 mm 0.04 in1.0 mm
10:40 PM 60.8°F16.0°C 40.4°F4.7°C 47% 2.0 mph SSW3.2 kmh SSW 3.0 mph4.8 kmh 29.69 in1005.4 mb 0.00 in0.0 mm 0.00 in0.0 mm 0.04 in1.0 mm
10:45 PM 60.8°F16.0°C 40.4°F4.7°C 47% 3.0 mph S4.8 kmh S 4.0 mph6.4 kmh 29.69 in1005.4 mb 0.00 in0.0 mm 0.00 in0.0 mm 0.04 in1.0 mm
10:50 PM 60.9°F16.1°C 40.5°F4.7°C 47% 3.0 mph S4.8 kmh S 3.0 mph4.8 kmh 29.69 in1005.4 mb 0.00 in0.0 mm 0.00 in0.0 mm 0.04 in1.0 mm
10:55 PM 61.0°F16.1°C 40.6°F4.8°C 47% 1.0 mph SSW1.6 kmh SSW 3.0 mph4.8 kmh 29.69 in1005.4 mb 0.00 in0.0 mm 0.00 in0.0 mm 0.04 in1.0 mm
11:00 PM 60.8°F16.0°C 40.4°F4.7°C 47% 2.0 mph SSW3.2 kmh SSW 3.0 mph4.8 kmh 29.69 in1005.4 mb 0.00 in0.0 mm 0.00 in0.0 mm 0.04 in1.0 mm
11:05 PM 60.6°F15.9°C 40.2°F4.6°C 47% 2.0 mph SSW3.2 kmh SSW 4.0 mph6.4 kmh 29.70 in1005.8 mb 0.00 in0.0 mm 0.00 in0.0 mm 0.04 in1.0 mm
11:10 PM 60.4°F15.8°C 40.6°F4.8°C 48% 2.0 mph SSW3.2 kmh SSW 3.0 mph4.8 kmh 29.70 in1005.8 mb 0.00 in0.0 mm 0.00 in0.0 mm 0.04 in1.0 mm
11:15 PM 60.4°F15.8°C 40.0°F4.4°C 47% 1.0 mph SW1.6 kmh SW 5.0 mph8.0 kmh 29.70 in1005.8 mb 0.00 in0.0 mm 0.00 in0.0 mm 0.04 in1.0 mm
11:20 PM 60.5°F15.8°C 40.1°F4.5°C 47% 2.0 mph SW3.2 kmh SW 4.0 mph6.4 kmh 29.70 in1005.8 mb 0.00 in0.0 mm 0.00 in0.0 mm 0.04 in1.0 mm
11:25 PM 60.5°F15.8°C 40.1°F4.5°C 47% 2.0 mph SW3.2 kmh SW 3.0 mph4.8 kmh 29.70 in1005.8 mb 0.00 in0.0 mm 0.00 in0.0 mm 0.04 in1.0 mm
11:30 PM 60.4°F15.8°C 40.0°F4.4°C 47% 2.0 mph SW3.2 kmh SW 3.0 mph4.8 kmh 29.70 in1005.8 mb 0.00 in0.0 mm 0.00 in0.0 mm 0.04 in1.0 mm
11:35 PM 60.3°F15.7°C 39.9°F4.4°C 47% 2.0 mph SSW3.2 kmh SSW 4.0 mph6.4 kmh 29.70 in1005.8 mb 0.00 in0.0 mm 0.00 in0.0 mm 0.04 in1.0 mm
11:40 PM 60.4°F15.8°C 40.0°F4.4°C 47% 3.0 mph SSW4.8 kmh SSW 4.0 mph6.4 kmh 29.70 in1005.8 mb 0.00 in0.0 mm 0.00 in0.0 mm 0.04 in1.0 mm
11:45 PM 60.4°F15.8°C 39.5°F4.2°C 46% 2.0 mph SW3.2 kmh SW 4.0 mph6.4 kmh 29.70 in1005.8 mb 0.00 in0.0 mm 0.00 in0.0 mm 0.04 in1.0 mm
11:50 PM 60.4°F15.8°C 39.5°F4.2°C 46% 1.0 mph SSW1.6 kmh SSW 3.0 mph4.8 kmh 29.70 in1005.8 mb 0.00 in0.0 mm 0.00 in0.0 mm 0.04 in1.0 mm
11:55 PM 60.3°F15.7°C 39.4°F4.1°C 46% 1.0 mph SSW1.6 kmh SSW 2.0 mph3.2 kmh 29.71 in1006.1 mb 0.00 in0.0 mm 0.00 in0.0 mm 0.04 in1.0 mm